UAE958 OLBA-OMDB
Flight info
| Callsign | UAE958 |
|---|---|
| Flight time | 3h 15m |
| Altitude | 39000 |
| Route | LATEB DCT BASEM R785 ABBAS DCT TRF R23 NEVOL N318 TAMRO T503 KSA M440 SITER DCT SBT DCT TANSU/N0511F330 G783 ASPED Q308 KIPOK/N0507F340 Q568 IMPED |
| Aircraft | B77W/H-SDE1E2E3FGHIJ2J3J4J5M1RWXY/LB1D1 |
Departure
| Time | 2026-05-07 16:47 |
|---|---|
| Airport | Beirut Rafic Hariri International Airport (OLBA) |
Arrival
| Time | 2026-05-07 20:02 |
|---|---|
| Airport | Dubai International Airport (OMDB) |
| Time | Latitude | Longitude | Altitude | Speed | Heading |
|---|---|---|---|---|---|
| 2026-05-07 16:14 | 33.82501 | 35.49103 | 42 ft | 0 kts | 104° |
| 2026-05-07 16:40 | 33.82505 | 35.49084 | 44 ft | 4 kts | 107° |
| 2026-05-07 16:40 | 33.82514 | 35.49053 | 48 ft | 4 kts | 109° |
| 2026-05-07 16:40 | 33.82522 | 35.49024 | 48 ft | 4 kts | 113° |
| 2026-05-07 16:41 | 33.82535 | 35.48999 | 46 ft | 4 kts | 136° |
| 2026-05-07 16:41 | 33.82553 | 35.48983 | 42 ft | 4 kts | 165° |
| 2026-05-07 16:41 | 33.82579 | 35.48979 | 41 ft | 4 kts | 177° |
| 2026-05-07 16:41 | 33.82595 | 35.48978 | 41 ft | 1 kts | 175° |
| 2026-05-07 16:42 | 33.82596 | 35.48977 | 42 ft | 1 kts | 175° |
| 2026-05-07 16:43 | 33.82580 | 35.48979 | 41 ft | 14 kts | 175° |
| 2026-05-07 16:43 | 33.82431 | 35.48996 | 39 ft | 23 kts | 174° |
| 2026-05-07 16:44 | 33.82272 | 35.49015 | 42 ft | 23 kts | 172° |
| 2026-05-07 16:44 | 33.82092 | 35.49037 | 35 ft | 27 kts | 176° |
| 2026-05-07 16:44 | 33.81905 | 35.49050 | 40 ft | 28 kts | 177° |
| 2026-05-07 16:44 | 33.81693 | 35.49063 | 38 ft | 35 kts | 176° |
| 2026-05-07 16:45 | 33.81496 | 35.49035 | 41 ft | 27 kts | 215° |
| 2026-05-07 16:45 | 33.81349 | 35.48899 | 39 ft | 27 kts | 215° |
| 2026-05-07 16:45 | 33.81197 | 35.48768 | 40 ft | 25 kts | 215° |
| 2026-05-07 16:45 | 33.81113 | 35.48746 | 41 ft | 10 kts | 141° |
| 2026-05-07 16:46 | 33.81063 | 35.48750 | 44 ft | 7 kts | 229° |
| 2026-05-07 16:46 | 33.81082 | 35.48703 | 43 ft | 7 kts | 336° |
| 2026-05-07 16:46 | 33.81094 | 35.48700 | 42 ft | 2 kts | 348° |
| 2026-05-07 16:46 | 33.81442 | 35.48603 | 42 ft | 97 kts | 347° |
| 2026-05-07 16:47 | 33.82376 | 35.48344 | 45 ft | 173 kts | 347° |
| 2026-05-07 16:47 | 33.83632 | 35.47998 | 622 ft | 187 kts | 348° |
| 2026-05-07 16:47 | 33.84916 | 35.47667 | 1511 ft | 193 kts | 348° |
| 2026-05-07 16:47 | 33.86325 | 35.47268 | 1902 ft | 224 kts | 347° |
| 2026-05-07 16:48 | 33.87930 | 35.46823 | 2498 ft | 243 kts | 348° |
| 2026-05-07 16:48 | 33.89612 | 35.46805 | 3128 ft | 254 kts | 19° |
| 2026-05-07 16:48 | 33.91044 | 35.48050 | 4063 ft | 261 kts | 54° |
| 2026-05-07 16:48 | 33.91643 | 35.50110 | 4955 ft | 268 kts | 89° |
| 2026-05-07 16:49 | 33.91373 | 35.52332 | 5818 ft | 271 kts | 105° |
| 2026-05-07 16:49 | 33.91039 | 35.54566 | 6654 ft | 275 kts | 89° |
| 2026-05-07 16:49 | 33.91338 | 35.56836 | 7417 ft | 282 kts | 78° |
| 2026-05-07 16:49 | 33.91749 | 35.59171 | 8304 ft | 286 kts | 79° |
| 2026-05-07 16:50 | 33.92138 | 35.61543 | 9206 ft | 292 kts | 79° |
| 2026-05-07 16:50 | 33.92520 | 35.63974 | 10113 ft | 296 kts | 79° |
| 2026-05-07 16:50 | 33.92893 | 35.66437 | 10927 ft | 303 kts | 80° |
| 2026-05-07 16:50 | 33.93265 | 35.68955 | 11641 ft | 317 kts | 79° |
| 2026-05-07 16:51 | 33.93668 | 35.71712 | 11949 ft | 349 kts | 79° |
| 2026-05-07 16:51 | 33.94106 | 35.74744 | 12200 ft | 382 kts | 80° |
| 2026-05-07 16:51 | 33.94570 | 35.77990 | 12817 ft | 402 kts | 80° |
| 2026-05-07 16:51 | 33.95046 | 35.81321 | 13679 ft | 414 kts | 79° |
| 2026-05-07 16:52 | 33.95535 | 35.84789 | 14578 ft | 423 kts | 79° |
| 2026-05-07 16:52 | 33.96033 | 35.88318 | 15539 ft | 430 kts | 79° |
| 2026-05-07 16:52 | 33.96534 | 35.91890 | 16473 ft | 437 kts | 80° |
| 2026-05-07 16:52 | 33.97044 | 35.95546 | 17339 ft | 445 kts | 80° |
| 2026-05-07 16:53 | 33.97562 | 35.99258 | 18172 ft | 454 kts | 79° |
| 2026-05-07 16:53 | 33.98086 | 36.03007 | 18970 ft | 460 kts | 79° |
| 2026-05-07 16:53 | 33.98619 | 36.06827 | 19779 ft | 465 kts | 79° |
| 2026-05-07 16:53 | 33.99157 | 36.10695 | 20570 ft | 471 kts | 79° |
| 2026-05-07 16:54 | 33.99605 | 36.14630 | 21276 ft | 478 kts | 86° |
| 2026-05-07 16:54 | 33.99466 | 36.18658 | 21950 ft | 485 kts | 99° |
| 2026-05-07 16:54 | 33.98703 | 36.22635 | 22692 ft | 489 kts | 109° |
| 2026-05-07 16:54 | 33.97451 | 36.26452 | 23435 ft | 491 kts | 116° |
| 2026-05-07 16:55 | 33.96043 | 36.30237 | 24036 ft | 498 kts | 117° |
| 2026-05-07 16:55 | 33.94704 | 36.33811 | 24602 ft | 502 kts | 117° |
| 2026-05-07 16:55 | 33.93313 | 36.37539 | 25223 ft | 506 kts | 117° |
| 2026-05-07 16:55 | 33.91918 | 36.41311 | 25829 ft | 510 kts | 117° |
| 2026-05-07 16:56 | 33.90494 | 36.45191 | 26424 ft | 514 kts | 116° |
| 2026-05-07 16:56 | 33.89047 | 36.49152 | 26965 ft | 519 kts | 116° |
| 2026-05-07 16:56 | 33.86120 | 36.57185 | 28044 ft | 528 kts | 117° |
| 2026-05-07 16:57 | 33.84655 | 36.61206 | 28583 ft | 532 kts | 117° |
| 2026-05-07 16:57 | 33.83160 | 36.65301 | 29070 ft | 536 kts | 117° |
| 2026-05-07 16:57 | 33.81653 | 36.69419 | 29499 ft | 540 kts | 117° |
| 2026-05-07 16:57 | 33.80137 | 36.73556 | 29908 ft | 543 kts | 117° |
| 2026-05-07 16:58 | 33.78605 | 36.77732 | 30378 ft | 544 kts | 117° |
| 2026-05-07 16:58 | 33.77078 | 36.81889 | 30944 ft | 542 kts | 117° |
| 2026-05-07 16:58 | 33.75556 | 36.86032 | 31569 ft | 538 kts | 117° |
| 2026-05-07 16:58 | 33.74047 | 36.90131 | 32190 ft | 535 kts | 117° |
| 2026-05-07 16:59 | 33.72563 | 36.94158 | 32738 ft | 533 kts | 117° |
| 2026-05-07 16:59 | 33.71060 | 36.98226 | 33280 ft | 531 kts | 117° |
| 2026-05-07 16:59 | 33.69561 | 37.02278 | 33809 ft | 530 kts | 117° |
| 2026-05-07 16:59 | 33.68062 | 37.06326 | 34308 ft | 528 kts | 117° |
| 2026-05-07 17:00 | 33.67079 | 37.08978 | 34573 ft | 527 kts | 118° |
| 2026-05-07 17:00 | 33.65588 | 37.12995 | 34955 ft | 526 kts | 118° |
| 2026-05-07 17:00 | 33.64092 | 37.17021 | 35315 ft | 526 kts | 118° |
| 2026-05-07 17:00 | 33.62597 | 37.21039 | 35679 ft | 526 kts | 118° |
| 2026-05-07 17:01 | 33.60625 | 37.26334 | 36237 ft | 523 kts | 118° |
| 2026-05-07 17:01 | 33.59624 | 37.29020 | 36628 ft | 519 kts | 118° |
| 2026-05-07 17:01 | 33.58168 | 37.32926 | 37053 ft | 519 kts | 118° |
| 2026-05-07 17:01 | 33.56677 | 37.36908 | 37015 ft | 526 kts | 118° |
| 2026-05-07 17:02 | 33.53667 | 37.44942 | 37017 ft | 526 kts | 118° |
| 2026-05-07 17:02 | 33.50686 | 37.52897 | 37023 ft | 520 kts | 119° |
| 2026-05-07 17:03 | 33.47707 | 37.60817 | 37026 ft | 520 kts | 119° |
| 2026-05-07 17:03 | 33.44575 | 37.68521 | 37010 ft | 512 kts | 130° |
| 2026-05-07 17:04 | 33.42354 | 37.71782 | 37028 ft | 501 kts | 142° |
| 2026-05-07 17:04 | 33.39732 | 37.74491 | 37022 ft | 492 kts | 151° |
| 2026-05-07 17:04 | 33.36834 | 37.76564 | 37021 ft | 480 kts | 161° |
| 2026-05-07 17:04 | 33.33819 | 37.78306 | 37025 ft | 481 kts | 162° |
| 2026-05-07 17:05 | 33.27788 | 37.81756 | 37029 ft | 484 kts | 161° |
| 2026-05-07 17:05 | 33.21700 | 37.85296 | 37016 ft | 487 kts | 161° |
| 2026-05-07 17:06 | 33.15608 | 37.88887 | 37015 ft | 488 kts | 161° |
| 2026-05-07 17:06 | 33.09552 | 37.92469 | 37011 ft | 487 kts | 161° |
| 2026-05-07 17:07 | 33.03482 | 37.96053 | 37012 ft | 486 kts | 161° |
| 2026-05-07 17:07 | 32.97427 | 37.99618 | 36998 ft | 484 kts | 161° |
| 2026-05-07 17:08 | 32.91426 | 38.03144 | 36999 ft | 482 kts | 161° |
| 2026-05-07 17:08 | 32.85414 | 38.06670 | 37005 ft | 481 kts | 161° |
| 2026-05-07 17:09 | 32.79409 | 38.10188 | 37011 ft | 480 kts | 161° |
| 2026-05-07 17:09 | 32.73419 | 38.13691 | 37011 ft | 479 kts | 161° |
| 2026-05-07 17:10 | 32.67473 | 38.17163 | 37017 ft | 479 kts | 161° |
| 2026-05-07 17:10 | 32.61483 | 38.20656 | 37014 ft | 478 kts | 161° |
| 2026-05-07 17:11 | 32.55505 | 38.24136 | 37016 ft | 478 kts | 161° |
| 2026-05-07 17:11 | 32.49528 | 38.27612 | 37013 ft | 478 kts | 161° |
| 2026-05-07 17:12 | 32.43576 | 38.31067 | 37031 ft | 479 kts | 161° |
| 2026-05-07 17:12 | 32.37577 | 38.34544 | 37023 ft | 479 kts | 161° |
| 2026-05-07 17:13 | 32.31579 | 38.38017 | 37018 ft | 479 kts | 161° |
| 2026-05-07 17:13 | 32.25625 | 38.41458 | 37019 ft | 479 kts | 161° |
| 2026-05-07 17:14 | 32.19634 | 38.44916 | 37017 ft | 478 kts | 161° |
| 2026-05-07 17:14 | 32.13650 | 38.48365 | 37017 ft | 477 kts | 161° |
| 2026-05-07 17:15 | 32.07712 | 38.51782 | 37019 ft | 477 kts | 161° |
| 2026-05-07 17:15 | 32.01768 | 38.55197 | 37030 ft | 476 kts | 161° |
| 2026-05-07 17:16 | 31.95807 | 38.58618 | 37027 ft | 476 kts | 161° |
| 2026-05-07 17:16 | 31.89840 | 38.62037 | 37025 ft | 475 kts | 161° |
| 2026-05-07 17:17 | 31.83926 | 38.65421 | 37020 ft | 475 kts | 161° |
| 2026-05-07 17:17 | 31.77974 | 38.68822 | 37020 ft | 474 kts | 161° |
| 2026-05-07 17:18 | 31.72021 | 38.72219 | 37022 ft | 474 kts | 161° |
| 2026-05-07 17:18 | 31.66218 | 38.75926 | 37025 ft | 479 kts | 155° |
| 2026-05-07 17:19 | 31.60533 | 38.80046 | 37021 ft | 480 kts | 155° |
| 2026-05-07 17:19 | 31.54887 | 38.84142 | 37024 ft | 479 kts | 155° |
| 2026-05-07 17:20 | 31.49197 | 38.88231 | 37029 ft | 479 kts | 155° |
| 2026-05-07 17:20 | 31.43493 | 38.92307 | 37033 ft | 479 kts | 155° |
| 2026-05-07 17:21 | 31.37837 | 38.96343 | 37043 ft | 479 kts | 155° |
| 2026-05-07 17:21 | 31.32145 | 39.00400 | 37037 ft | 479 kts | 155° |
| 2026-05-07 17:22 | 31.26445 | 39.04457 | 37041 ft | 478 kts | 155° |
| 2026-05-07 17:22 | 31.20756 | 39.08502 | 37048 ft | 478 kts | 155° |
| 2026-05-07 17:23 | 31.15099 | 39.12517 | 37051 ft | 478 kts | 155° |
| 2026-05-07 17:23 | 31.09397 | 39.16560 | 37055 ft | 477 kts | 155° |
| 2026-05-07 17:24 | 31.03741 | 39.20565 | 37058 ft | 477 kts | 155° |
| 2026-05-07 17:24 | 30.98053 | 39.24590 | 37050 ft | 477 kts | 155° |
| 2026-05-07 17:25 | 30.92374 | 39.28607 | 37065 ft | 477 kts | 155° |
| 2026-05-07 17:25 | 30.86727 | 39.32598 | 37061 ft | 477 kts | 156° |
| 2026-05-07 17:26 | 30.81043 | 39.36608 | 37054 ft | 477 kts | 156° |
| 2026-05-07 17:26 | 30.75400 | 39.40585 | 37065 ft | 476 kts | 156° |
| 2026-05-07 17:27 | 30.69719 | 39.44582 | 37062 ft | 476 kts | 156° |
| 2026-05-07 17:27 | 30.64083 | 39.48543 | 37056 ft | 475 kts | 156° |
| 2026-05-07 17:28 | 30.58420 | 39.52517 | 37062 ft | 475 kts | 156° |
| 2026-05-07 17:28 | 30.52756 | 39.56487 | 37062 ft | 474 kts | 156° |
| 2026-05-07 17:29 | 30.47138 | 39.60419 | 37062 ft | 474 kts | 156° |
| 2026-05-07 17:29 | 30.41726 | 39.64907 | 37061 ft | 485 kts | 145° |
| 2026-05-07 17:30 | 30.37130 | 39.70727 | 37061 ft | 496 kts | 134° |
| 2026-05-07 17:30 | 30.33034 | 39.77178 | 37062 ft | 497 kts | 133° |
| 2026-05-07 17:31 | 30.28954 | 39.83654 | 37060 ft | 496 kts | 134° |
| 2026-05-07 17:31 | 30.24864 | 39.90038 | 37052 ft | 496 kts | 134° |
| 2026-05-07 17:32 | 30.20738 | 39.96420 | 37055 ft | 495 kts | 134° |
| 2026-05-07 17:32 | 30.17301 | 40.01726 | 37049 ft | 494 kts | 135° |
| 2026-05-07 17:33 | 30.12502 | 40.09130 | 37057 ft | 494 kts | 135° |
| 2026-05-07 17:33 | 30.08379 | 40.15483 | 37049 ft | 493 kts | 135° |
| 2026-05-07 17:34 | 30.04288 | 40.21778 | 37044 ft | 493 kts | 135° |
| 2026-05-07 17:34 | 30.00165 | 40.28112 | 37042 ft | 492 kts | 135° |
| 2026-05-07 17:35 | 29.96040 | 40.34423 | 37041 ft | 492 kts | 136° |
| 2026-05-07 17:35 | 29.91937 | 40.40690 | 37035 ft | 491 kts | 136° |
| 2026-05-07 17:36 | 29.87815 | 40.46980 | 37038 ft | 491 kts | 136° |
| 2026-05-07 17:36 | 29.83695 | 40.53258 | 37030 ft | 490 kts | 136° |
| 2026-05-07 17:37 | 29.79580 | 40.59521 | 37034 ft | 490 kts | 136° |
| 2026-05-07 17:37 | 29.75553 | 40.65891 | 37027 ft | 496 kts | 131° |
| 2026-05-07 17:38 | 29.71914 | 40.72655 | 37033 ft | 498 kts | 130° |
| 2026-05-07 17:38 | 29.68323 | 40.79433 | 37034 ft | 498 kts | 130° |
| 2026-05-07 17:39 | 29.64693 | 40.86213 | 37031 ft | 498 kts | 131° |
| 2026-05-07 17:39 | 29.61041 | 40.92982 | 37067 ft | 497 kts | 131° |
| 2026-05-07 17:40 | 29.57422 | 40.99672 | 37023 ft | 494 kts | 132° |
| 2026-05-07 17:40 | 29.53802 | 41.06357 | 37020 ft | 490 kts | 132° |
| 2026-05-07 17:41 | 29.50204 | 41.12988 | 37019 ft | 487 kts | 132° |
| 2026-05-07 17:41 | 29.46622 | 41.19577 | 37020 ft | 485 kts | 132° |
| 2026-05-07 17:42 | 29.43062 | 41.26115 | 37025 ft | 485 kts | 133° |
| 2026-05-07 17:42 | 29.39474 | 41.32697 | 37022 ft | 486 kts | 133° |
| 2026-05-07 17:43 | 29.35874 | 41.39292 | 37023 ft | 488 kts | 133° |
| 2026-05-07 17:43 | 29.32261 | 41.45886 | 37018 ft | 488 kts | 133° |
| 2026-05-07 17:44 | 29.28654 | 41.52458 | 37011 ft | 489 kts | 133° |
| 2026-05-07 17:44 | 29.25029 | 41.59058 | 37009 ft | 489 kts | 133° |
| 2026-05-07 17:45 | 29.21432 | 41.65598 | 37007 ft | 488 kts | 133° |
| 2026-05-07 17:45 | 29.17813 | 41.72168 | 37003 ft | 487 kts | 133° |
| 2026-05-07 17:46 | 29.14184 | 41.78743 | 37005 ft | 486 kts | 133° |
| 2026-05-07 17:46 | 29.10591 | 41.85244 | 37018 ft | 486 kts | 133° |
| 2026-05-07 17:47 | 29.06980 | 41.91768 | 37001 ft | 486 kts | 133° |
| 2026-05-07 17:47 | 29.03945 | 41.97242 | 36995 ft | 485 kts | 133° |
| 2026-05-07 17:48 | 29.00351 | 42.03718 | 36994 ft | 485 kts | 133° |
| 2026-05-07 17:48 | 28.96732 | 42.10233 | 36989 ft | 484 kts | 133° |
| 2026-05-07 17:49 | 28.93124 | 42.16718 | 36989 ft | 483 kts | 133° |
| 2026-05-07 17:49 | 28.89537 | 42.23157 | 36991 ft | 482 kts | 133° |
| 2026-05-07 17:50 | 28.85927 | 42.29625 | 36993 ft | 482 kts | 133° |
| 2026-05-07 17:50 | 28.82320 | 42.36078 | 36986 ft | 482 kts | 133° |
| 2026-05-07 17:51 | 28.78738 | 42.42476 | 36989 ft | 482 kts | 133° |
| 2026-05-07 17:51 | 28.75120 | 42.48929 | 36987 ft | 482 kts | 134° |
| 2026-05-07 17:52 | 28.71495 | 42.55385 | 36975 ft | 483 kts | 134° |
| 2026-05-07 17:52 | 28.67874 | 42.61829 | 36978 ft | 483 kts | 134° |
| 2026-05-07 17:53 | 28.64190 | 42.68150 | 36977 ft | 477 kts | 138° |
| 2026-05-07 17:53 | 28.59862 | 42.73730 | 36983 ft | 467 kts | 144° |
| 2026-05-07 17:54 | 28.55403 | 42.79100 | 36975 ft | 468 kts | 144° |
| 2026-05-07 17:54 | 28.50934 | 42.84516 | 36966 ft | 469 kts | 144° |
| 2026-05-07 17:55 | 28.46486 | 42.89948 | 36973 ft | 470 kts | 144° |
| 2026-05-07 17:55 | 28.42027 | 42.95402 | 36970 ft | 471 kts | 144° |
| 2026-05-07 17:56 | 28.37590 | 43.00823 | 36961 ft | 471 kts | 144° |
| 2026-05-07 17:56 | 28.33117 | 43.06278 | 36959 ft | 471 kts | 144° |
| 2026-05-07 17:57 | 28.29393 | 43.10814 | 36962 ft | 471 kts | 144° |
| 2026-05-07 17:57 | 28.24201 | 43.17128 | 36956 ft | 471 kts | 145° |
| 2026-05-07 17:58 | 28.19722 | 43.22567 | 36956 ft | 470 kts | 145° |
| 2026-05-07 17:58 | 28.15248 | 43.27993 | 36940 ft | 470 kts | 145° |
| 2026-05-07 17:59 | 28.10808 | 43.33372 | 36949 ft | 469 kts | 146° |
| 2026-05-07 17:59 | 28.06352 | 43.38762 | 36945 ft | 469 kts | 146° |
| 2026-05-07 18:00 | 28.01905 | 43.44134 | 36951 ft | 469 kts | 146° |
| 2026-05-07 18:00 | 27.97430 | 43.49531 | 36933 ft | 470 kts | 146° |
| 2026-05-07 18:01 | 27.93816 | 43.53886 | 36939 ft | 470 kts | 146° |
| 2026-05-07 18:01 | 27.89656 | 43.58896 | 36934 ft | 471 kts | 146° |
| 2026-05-07 18:02 | 27.82899 | 43.66974 | 36929 ft | 469 kts | 148° |
| 2026-05-07 18:03 | 27.78231 | 43.72073 | 36930 ft | 466 kts | 149° |
| 2026-05-07 18:03 | 27.73535 | 43.77083 | 36927 ft | 467 kts | 149° |
| 2026-05-07 18:04 | 27.68892 | 43.82082 | 36934 ft | 468 kts | 149° |
| 2026-05-07 18:04 | 27.64189 | 43.87185 | 36922 ft | 468 kts | 148° |
| 2026-05-07 18:05 | 27.59517 | 43.92259 | 36925 ft | 468 kts | 148° |
| 2026-05-07 18:05 | 27.54819 | 43.97351 | 36933 ft | 468 kts | 148° |
| 2026-05-07 18:06 | 27.50116 | 44.02440 | 36934 ft | 468 kts | 148° |
| 2026-05-07 18:06 | 27.45441 | 44.07492 | 36938 ft | 468 kts | 148° |
| 2026-05-07 18:07 | 27.40731 | 44.12575 | 36932 ft | 468 kts | 148° |
| 2026-05-07 18:07 | 27.36031 | 44.17642 | 36933 ft | 468 kts | 148° |
| 2026-05-07 18:08 | 27.31328 | 44.22707 | 36934 ft | 468 kts | 148° |
| 2026-05-07 18:08 | 27.26621 | 44.27769 | 36951 ft | 467 kts | 148° |
| 2026-05-07 18:09 | 27.21944 | 44.32793 | 36921 ft | 467 kts | 148° |
| 2026-05-07 18:09 | 27.17241 | 44.37839 | 36942 ft | 467 kts | 148° |
| 2026-05-07 18:10 | 27.12531 | 44.42878 | 36943 ft | 466 kts | 148° |
| 2026-05-07 18:10 | 27.07846 | 44.47883 | 36935 ft | 467 kts | 148° |
| 2026-05-07 18:11 | 27.03133 | 44.52916 | 36934 ft | 468 kts | 148° |
| 2026-05-07 18:11 | 26.98435 | 44.57925 | 36941 ft | 469 kts | 148° |
| 2026-05-07 18:12 | 26.93701 | 44.62980 | 36948 ft | 470 kts | 148° |
| 2026-05-07 18:12 | 26.88951 | 44.68054 | 36947 ft | 472 kts | 148° |
| 2026-05-07 18:13 | 26.84178 | 44.73145 | 36953 ft | 473 kts | 148° |
| 2026-05-07 18:13 | 26.79435 | 44.78200 | 36958 ft | 474 kts | 148° |
| 2026-05-07 18:14 | 26.74644 | 44.83291 | 36967 ft | 474 kts | 148° |
| 2026-05-07 18:14 | 26.69848 | 44.88357 | 36972 ft | 474 kts | 148° |
| 2026-05-07 18:15 | 26.65066 | 44.93407 | 36973 ft | 474 kts | 148° |
| 2026-05-07 18:15 | 26.60266 | 44.98473 | 36984 ft | 474 kts | 147° |
| 2026-05-07 18:16 | 26.55470 | 45.03530 | 36990 ft | 474 kts | 147° |
| 2026-05-07 18:16 | 26.50697 | 45.08560 | 36997 ft | 474 kts | 147° |
| 2026-05-07 18:17 | 26.45898 | 45.13614 | 37006 ft | 474 kts | 147° |
| 2026-05-07 18:17 | 26.41120 | 45.18640 | 37012 ft | 474 kts | 147° |
| 2026-05-07 18:18 | 26.36316 | 45.23689 | 37018 ft | 475 kts | 147° |
| 2026-05-07 18:18 | 26.31503 | 45.28741 | 37020 ft | 475 kts | 147° |
| 2026-05-07 18:19 | 26.26686 | 45.33803 | 37019 ft | 475 kts | 147° |
| 2026-05-07 18:19 | 26.21879 | 45.38870 | 37018 ft | 474 kts | 147° |
| 2026-05-07 18:20 | 26.17114 | 45.43884 | 37025 ft | 474 kts | 146° |
| 2026-05-07 18:20 | 26.12309 | 45.48914 | 37021 ft | 473 kts | 147° |
| 2026-05-07 18:21 | 26.07504 | 45.53926 | 37020 ft | 472 kts | 146° |
| 2026-05-07 18:21 | 26.02712 | 45.58926 | 37021 ft | 472 kts | 146° |
| 2026-05-07 18:22 | 25.97944 | 45.63896 | 37023 ft | 472 kts | 146° |
| 2026-05-07 18:22 | 25.93137 | 45.68903 | 37028 ft | 472 kts | 146° |
| 2026-05-07 18:23 | 25.88359 | 45.73873 | 37026 ft | 473 kts | 146° |
| 2026-05-07 18:23 | 25.83551 | 45.78867 | 37012 ft | 473 kts | 146° |
| 2026-05-07 18:24 | 25.78732 | 45.83870 | 37017 ft | 474 kts | 146° |
| 2026-05-07 18:24 | 25.73937 | 45.88843 | 37014 ft | 474 kts | 146° |
| 2026-05-07 18:25 | 25.69112 | 45.93844 | 37021 ft | 475 kts | 146° |
| 2026-05-07 18:25 | 25.64279 | 45.98848 | 37011 ft | 476 kts | 146° |
| 2026-05-07 18:26 | 25.59427 | 46.03862 | 37011 ft | 476 kts | 146° |
| 2026-05-07 18:26 | 25.54578 | 46.08867 | 37009 ft | 477 kts | 146° |
| 2026-05-07 18:27 | 25.49752 | 46.13846 | 37008 ft | 477 kts | 146° |
| 2026-05-07 18:27 | 25.44890 | 46.18858 | 37003 ft | 477 kts | 146° |
| 2026-05-07 18:28 | 25.40020 | 46.23871 | 37005 ft | 477 kts | 146° |
| 2026-05-07 18:28 | 25.35149 | 46.28880 | 37002 ft | 477 kts | 145° |
| 2026-05-07 18:29 | 25.30306 | 46.33854 | 37008 ft | 478 kts | 145° |
| 2026-05-07 18:29 | 25.25435 | 46.38852 | 37006 ft | 478 kts | 145° |
| 2026-05-07 18:30 | 25.20535 | 46.43873 | 37022 ft | 479 kts | 145° |
| 2026-05-07 18:30 | 25.15672 | 46.48853 | 37001 ft | 480 kts | 145° |
| 2026-05-07 18:31 | 25.10776 | 46.53859 | 37017 ft | 480 kts | 145° |
| 2026-05-07 18:31 | 25.05864 | 46.58878 | 37013 ft | 481 kts | 145° |
| 2026-05-07 18:32 | 25.00977 | 46.63929 | 37018 ft | 485 kts | 141° |
| 2026-05-07 18:32 | 24.97509 | 46.68907 | 37017 ft | 499 kts | 129° |
| 2026-05-07 18:33 | 24.94016 | 46.77072 | 37017 ft | 511 kts | 119° |
| 2026-05-07 18:33 | 24.91405 | 46.84327 | 37013 ft | 511 kts | 118° |
| 2026-05-07 18:34 | 24.89186 | 46.90420 | 37009 ft | 510 kts | 119° |
| 2026-05-07 18:34 | 24.86508 | 46.97611 | 37001 ft | 509 kts | 119° |
| 2026-05-07 18:35 | 24.83791 | 47.04825 | 36995 ft | 509 kts | 119° |
| 2026-05-07 18:35 | 24.81078 | 47.12012 | 36971 ft | 508 kts | 119° |
| 2026-05-07 18:36 | 24.78381 | 47.19157 | 36975 ft | 507 kts | 119° |
| 2026-05-07 18:36 | 24.75672 | 47.26329 | 36975 ft | 506 kts | 119° |
| 2026-05-07 18:37 | 24.72961 | 47.33489 | 36971 ft | 506 kts | 119° |
| 2026-05-07 18:37 | 24.70266 | 47.40598 | 36970 ft | 506 kts | 119° |
| 2026-05-07 18:38 | 24.67546 | 47.47758 | 36954 ft | 506 kts | 119° |
| 2026-05-07 18:38 | 24.64826 | 47.54906 | 36960 ft | 506 kts | 119° |
| 2026-05-07 18:39 | 24.62100 | 47.62062 | 36951 ft | 507 kts | 119° |
| 2026-05-07 18:39 | 24.59384 | 47.69177 | 36948 ft | 507 kts | 119° |
| 2026-05-07 18:40 | 24.56651 | 47.76330 | 36941 ft | 507 kts | 119° |
| 2026-05-07 18:40 | 24.54040 | 47.83545 | 36940 ft | 509 kts | 116° |
| 2026-05-07 18:41 | 24.51670 | 47.90840 | 36939 ft | 510 kts | 115° |
| 2026-05-07 18:41 | 24.49302 | 47.98206 | 36931 ft | 510 kts | 115° |
| 2026-05-07 18:42 | 24.46923 | 48.05515 | 36922 ft | 510 kts | 115° |
| 2026-05-07 18:42 | 24.44526 | 48.12812 | 36919 ft | 509 kts | 115° |
| 2026-05-07 18:43 | 24.42105 | 48.20161 | 36912 ft | 509 kts | 115° |
| 2026-05-07 18:43 | 24.39705 | 48.27437 | 36907 ft | 509 kts | 115° |
| 2026-05-07 18:44 | 24.37291 | 48.34747 | 36899 ft | 508 kts | 115° |
| 2026-05-07 18:44 | 24.34876 | 48.42044 | 36898 ft | 508 kts | 115° |
| 2026-05-07 18:45 | 24.32476 | 48.49285 | 36895 ft | 508 kts | 115° |
| 2026-05-07 18:45 | 24.30058 | 48.56566 | 36886 ft | 507 kts | 115° |
| 2026-05-07 18:46 | 24.27641 | 48.63832 | 36880 ft | 507 kts | 115° |
| 2026-05-07 18:46 | 24.25220 | 48.71097 | 36878 ft | 507 kts | 115° |
| 2026-05-07 18:47 | 24.22795 | 48.78361 | 36873 ft | 507 kts | 115° |
| 2026-05-07 18:47 | 24.20385 | 48.85568 | 36875 ft | 506 kts | 115° |
| 2026-05-07 18:48 | 24.17960 | 48.92824 | 36871 ft | 506 kts | 115° |
| 2026-05-07 18:48 | 24.15612 | 49.00102 | 36870 ft | 506 kts | 114° |
| 2026-05-07 18:49 | 24.13294 | 49.07396 | 36869 ft | 506 kts | 114° |
| 2026-05-07 18:49 | 24.10970 | 49.14672 | 36876 ft | 505 kts | 114° |
| 2026-05-07 18:50 | 24.08646 | 49.21905 | 36881 ft | 505 kts | 114° |
| 2026-05-07 18:50 | 24.06307 | 49.29157 | 36864 ft | 504 kts | 114° |
| 2026-05-07 18:51 | 24.03983 | 49.36351 | 36867 ft | 504 kts | 114° |
| 2026-05-07 18:51 | 24.01635 | 49.43606 | 36876 ft | 504 kts | 114° |
| 2026-05-07 18:52 | 23.99292 | 49.50834 | 36872 ft | 503 kts | 114° |
| 2026-05-07 18:52 | 23.96963 | 49.58006 | 36860 ft | 503 kts | 114° |
| 2026-05-07 18:53 | 23.94612 | 49.65231 | 36871 ft | 503 kts | 114° |
| 2026-05-07 18:53 | 23.92262 | 49.72443 | 36869 ft | 503 kts | 114° |
| 2026-05-07 18:54 | 23.89918 | 49.79622 | 36869 ft | 503 kts | 114° |
| 2026-05-07 18:54 | 23.87557 | 49.86842 | 36864 ft | 503 kts | 114° |
| 2026-05-07 18:55 | 23.85209 | 49.94006 | 36866 ft | 503 kts | 114° |
| 2026-05-07 18:55 | 23.82845 | 50.01210 | 36858 ft | 503 kts | 114° |
| 2026-05-07 18:56 | 23.80479 | 50.08404 | 36861 ft | 503 kts | 114° |
| 2026-05-07 18:56 | 23.78122 | 50.15560 | 36860 ft | 503 kts | 114° |
| 2026-05-07 18:57 | 23.75747 | 50.22757 | 36864 ft | 503 kts | 114° |
| 2026-05-07 18:57 | 23.73365 | 50.29963 | 36858 ft | 503 kts | 114° |
| 2026-05-07 18:58 | 23.70999 | 50.37107 | 36854 ft | 503 kts | 114° |
| 2026-05-07 18:58 | 23.68619 | 50.44280 | 36850 ft | 503 kts | 114° |
| 2026-05-07 18:59 | 23.66236 | 50.51453 | 36855 ft | 503 kts | 114° |
| 2026-05-07 18:59 | 23.63845 | 50.58633 | 36848 ft | 502 kts | 114° |
| 2026-05-07 19:00 | 23.61467 | 50.65766 | 36849 ft | 502 kts | 114° |
| 2026-05-07 19:00 | 23.59072 | 50.72936 | 36847 ft | 502 kts | 114° |
| 2026-05-07 19:01 | 23.56672 | 50.80105 | 36840 ft | 502 kts | 114° |
| 2026-05-07 19:01 | 23.54288 | 50.87217 | 36845 ft | 502 kts | 114° |
| 2026-05-07 19:02 | 23.51881 | 50.94385 | 36840 ft | 503 kts | 114° |
| 2026-05-07 19:02 | 23.49476 | 51.01535 | 36838 ft | 503 kts | 114° |
| 2026-05-07 19:03 | 23.47065 | 51.08691 | 36836 ft | 503 kts | 114° |
| 2026-05-07 19:03 | 23.44663 | 51.15808 | 36840 ft | 503 kts | 114° |
| 2026-05-07 19:04 | 23.42246 | 51.22958 | 36834 ft | 502 kts | 114° |
| 2026-05-07 19:04 | 23.39823 | 51.30112 | 36832 ft | 502 kts | 114° |
| 2026-05-07 19:05 | 23.37413 | 51.37216 | 36838 ft | 502 kts | 114° |
| 2026-05-07 19:05 | 23.34985 | 51.44359 | 36838 ft | 502 kts | 113° |
| 2026-05-07 19:06 | 23.32556 | 51.51494 | 36828 ft | 502 kts | 113° |
| 2026-05-07 19:06 | 23.28910 | 51.62182 | 36829 ft | 501 kts | 113° |
| 2026-05-07 19:07 | 23.26497 | 51.69242 | 36830 ft | 500 kts | 113° |
| 2026-05-07 19:07 | 23.24068 | 51.76336 | 36830 ft | 500 kts | 113° |
| 2026-05-07 19:08 | 23.21641 | 51.83411 | 36829 ft | 499 kts | 113° |
| 2026-05-07 19:08 | 23.19211 | 51.90484 | 36826 ft | 498 kts | 113° |
| 2026-05-07 19:09 | 23.16783 | 51.97538 | 36822 ft | 497 kts | 113° |
| 2026-05-07 19:09 | 23.14357 | 52.04575 | 36821 ft | 497 kts | 113° |
| 2026-05-07 19:10 | 23.11942 | 52.11571 | 36828 ft | 496 kts | 113° |
| 2026-05-07 19:10 | 23.09518 | 52.18580 | 36826 ft | 496 kts | 113° |
| 2026-05-07 19:11 | 23.07082 | 52.25609 | 36812 ft | 496 kts | 113° |
| 2026-05-07 19:11 | 23.04663 | 52.32582 | 36809 ft | 495 kts | 113° |
| 2026-05-07 19:12 | 23.02227 | 52.39591 | 36832 ft | 495 kts | 113° |
| 2026-05-07 19:12 | 22.99788 | 52.46596 | 36821 ft | 495 kts | 113° |
| 2026-05-07 19:13 | 22.97347 | 52.53597 | 36819 ft | 495 kts | 113° |
| 2026-05-07 19:13 | 22.94933 | 52.60511 | 36819 ft | 495 kts | 113° |
| 2026-05-07 19:14 | 22.92478 | 52.67529 | 36820 ft | 495 kts | 113° |
| 2026-05-07 19:14 | 22.90030 | 52.74516 | 36820 ft | 495 kts | 113° |
| 2026-05-07 19:15 | 22.87582 | 52.81493 | 36818 ft | 495 kts | 113° |
| 2026-05-07 19:15 | 22.85138 | 52.88444 | 36823 ft | 495 kts | 113° |
| 2026-05-07 19:16 | 22.82684 | 52.95416 | 36817 ft | 494 kts | 113° |
| 2026-05-07 19:16 | 22.80245 | 53.02335 | 36817 ft | 494 kts | 113° |
| 2026-05-07 19:17 | 22.77772 | 53.09338 | 36816 ft | 494 kts | 113° |
| 2026-05-07 19:17 | 22.75728 | 53.15120 | 36818 ft | 493 kts | 113° |
| 2026-05-07 19:18 | 22.72889 | 53.23201 | 36817 ft | 494 kts | 110° |
| 2026-05-07 19:18 | 22.71519 | 53.29218 | 36821 ft | 496 kts | 101° |
| 2026-05-07 19:19 | 22.70964 | 53.36684 | 36820 ft | 497 kts | 92° |
| 2026-05-07 19:19 | 22.70917 | 53.44132 | 36822 ft | 498 kts | 91° |
| 2026-05-07 19:20 | 22.70876 | 53.51638 | 36818 ft | 498 kts | 92° |
| 2026-05-07 19:20 | 22.70791 | 53.59142 | 36816 ft | 498 kts | 92° |
| 2026-05-07 19:21 | 22.70682 | 53.66641 | 36816 ft | 497 kts | 92° |
| 2026-05-07 19:21 | 22.70568 | 53.74099 | 36814 ft | 497 kts | 92° |
| 2026-05-07 19:22 | 22.70453 | 53.81593 | 36817 ft | 497 kts | 92° |
| 2026-05-07 19:22 | 22.70335 | 53.89083 | 36812 ft | 497 kts | 92° |
| 2026-05-07 19:23 | 22.70213 | 53.96591 | 36818 ft | 497 kts | 92° |
| 2026-05-07 19:23 | 22.70090 | 54.04042 | 36815 ft | 497 kts | 92° |
| 2026-05-07 19:24 | 22.69961 | 54.11537 | 36815 ft | 497 kts | 92° |
| 2026-05-07 19:24 | 22.69831 | 54.18987 | 36817 ft | 497 kts | 92° |
| 2026-05-07 19:25 | 22.69695 | 54.26497 | 36816 ft | 497 kts | 92° |
| 2026-05-07 19:25 | 22.69557 | 54.33990 | 36816 ft | 497 kts | 92° |
| 2026-05-07 19:26 | 22.69421 | 54.41429 | 36816 ft | 497 kts | 91° |
| 2026-05-07 19:26 | 22.70334 | 54.48842 | 36821 ft | 499 kts | 76° |
| 2026-05-07 19:27 | 22.72841 | 54.55850 | 36825 ft | 500 kts | 65° |
| 2026-05-07 19:27 | 22.75901 | 54.62597 | 36812 ft | 500 kts | 64° |
| 2026-05-07 19:28 | 22.78969 | 54.69394 | 36815 ft | 501 kts | 64° |
| 2026-05-07 19:28 | 22.81981 | 54.76218 | 36814 ft | 501 kts | 65° |
| 2026-05-07 19:29 | 22.84952 | 54.83013 | 36811 ft | 502 kts | 65° |
| 2026-05-07 19:29 | 22.87941 | 54.89855 | 36812 ft | 502 kts | 65° |
| 2026-05-07 19:30 | 22.90935 | 54.96710 | 36814 ft | 502 kts | 65° |
| 2026-05-07 19:30 | 22.93907 | 55.03521 | 36817 ft | 502 kts | 65° |
| 2026-05-07 19:31 | 22.96891 | 55.10372 | 36822 ft | 502 kts | 65° |
| 2026-05-07 19:31 | 22.99880 | 55.17243 | 36826 ft | 502 kts | 65° |
| 2026-05-07 19:32 | 23.01530 | 55.20571 | 36817 ft | 500 kts | 54° |
| 2026-05-07 19:32 | 23.03895 | 55.23319 | 36837 ft | 499 kts | 38° |
| 2026-05-07 19:32 | 23.06792 | 55.25348 | 36839 ft | 498 kts | 24° |
| 2026-05-07 19:32 | 23.10057 | 55.26539 | 36844 ft | 493 kts | 13° |
| 2026-05-07 19:33 | 23.16749 | 55.28343 | 36843 ft | 497 kts | 13° |
| 2026-05-07 19:33 | 23.23482 | 55.30228 | 36840 ft | 500 kts | 13° |
| 2026-05-07 19:34 | 23.30219 | 55.32198 | 36845 ft | 502 kts | 14° |
| 2026-05-07 19:34 | 23.36928 | 55.34178 | 36838 ft | 502 kts | 14° |
| 2026-05-07 19:35 | 23.43681 | 55.36168 | 36839 ft | 502 kts | 13° |
| 2026-05-07 19:35 | 23.50424 | 55.38153 | 36840 ft | 500 kts | 13° |
| 2026-05-07 19:36 | 23.53759 | 55.39137 | 36535 ft | 495 kts | 13° |
| 2026-05-07 19:36 | 23.57079 | 55.40122 | 36016 ft | 491 kts | 13° |
| 2026-05-07 19:36 | 23.60369 | 55.41101 | 35481 ft | 488 kts | 13° |
| 2026-05-07 19:36 | 23.63637 | 55.42074 | 34936 ft | 485 kts | 13° |
| 2026-05-07 19:37 | 23.66846 | 55.43030 | 34454 ft | 481 kts | 13° |
| 2026-05-07 19:37 | 23.70064 | 55.43988 | 33979 ft | 478 kts | 13° |
| 2026-05-07 19:37 | 23.73271 | 55.44943 | 33471 ft | 474 kts | 13° |
| 2026-05-07 19:37 | 23.76459 | 55.45893 | 32973 ft | 470 kts | 13° |
| 2026-05-07 19:38 | 23.79556 | 55.46817 | 32509 ft | 465 kts | 13° |
| 2026-05-07 19:38 | 23.82666 | 55.47744 | 32054 ft | 461 kts | 13° |
| 2026-05-07 19:38 | 23.85751 | 55.48664 | 31580 ft | 457 kts | 13° |
| 2026-05-07 19:38 | 23.88810 | 55.49574 | 31125 ft | 453 kts | 12° |
| 2026-05-07 19:39 | 23.91846 | 55.50476 | 30672 ft | 450 kts | 12° |
| 2026-05-07 19:39 | 23.94861 | 55.51372 | 30235 ft | 446 kts | 12° |
| 2026-05-07 19:39 | 23.97833 | 55.52320 | 29784 ft | 444 kts | 17° |
| 2026-05-07 19:39 | 24.00653 | 55.53701 | 29258 ft | 444 kts | 26° |
| 2026-05-07 19:40 | 24.03276 | 55.55477 | 28791 ft | 442 kts | 33° |
| 2026-05-07 19:40 | 24.05647 | 55.57610 | 28331 ft | 440 kts | 40° |
| 2026-05-07 19:40 | 24.07900 | 55.59855 | 27885 ft | 436 kts | 41° |
| 2026-05-07 19:40 | 24.10090 | 55.62076 | 27449 ft | 433 kts | 41° |
| 2026-05-07 19:41 | 24.12297 | 55.64312 | 27019 ft | 429 kts | 41° |
| 2026-05-07 19:41 | 24.14487 | 55.66516 | 26597 ft | 426 kts | 41° |
| 2026-05-07 19:41 | 24.16672 | 55.68699 | 26170 ft | 422 kts | 41° |
| 2026-05-07 19:41 | 24.18839 | 55.70854 | 25761 ft | 419 kts | 41° |
| 2026-05-07 19:42 | 24.20993 | 55.72992 | 25355 ft | 416 kts | 41° |
| 2026-05-07 19:42 | 24.23131 | 55.75113 | 24961 ft | 413 kts | 41° |
| 2026-05-07 19:42 | 24.25247 | 55.77212 | 24572 ft | 410 kts | 41° |
| 2026-05-07 19:42 | 24.27334 | 55.79284 | 24193 ft | 406 kts | 42° |
| 2026-05-07 19:43 | 24.29424 | 55.81361 | 23819 ft | 403 kts | 42° |
| 2026-05-07 19:43 | 24.31496 | 55.83421 | 23443 ft | 401 kts | 42° |
| 2026-05-07 19:43 | 24.33562 | 55.85476 | 22868 ft | 400 kts | 42° |
| 2026-05-07 19:43 | 24.35630 | 55.87535 | 22242 ft | 402 kts | 42° |
| 2026-05-07 19:44 | 24.37686 | 55.89582 | 21636 ft | 403 kts | 42° |
| 2026-05-07 19:44 | 24.39759 | 55.91649 | 21030 ft | 403 kts | 43° |
| 2026-05-07 19:44 | 24.41836 | 55.93724 | 20436 ft | 403 kts | 43° |
| 2026-05-07 19:44 | 24.43909 | 55.95797 | 19854 ft | 402 kts | 43° |
| 2026-05-07 19:45 | 24.45926 | 55.97814 | 19208 ft | 381 kts | 43° |
| 2026-05-07 19:45 | 24.47835 | 55.99724 | 18529 ft | 362 kts | 43° |
| 2026-05-07 19:45 | 24.49639 | 56.01530 | 17814 ft | 348 kts | 43° |
| 2026-05-07 19:45 | 24.51412 | 56.03305 | 17022 ft | 341 kts | 43° |
| 2026-05-07 19:46 | 24.53175 | 56.05070 | 16262 ft | 343 kts | 43° |
| 2026-05-07 19:46 | 24.54941 | 56.06839 | 15475 ft | 344 kts | 43° |
| 2026-05-07 19:46 | 24.56702 | 56.08599 | 14701 ft | 339 kts | 43° |
| 2026-05-07 19:46 | 24.58447 | 56.10324 | 13948 ft | 334 kts | 40° |
| 2026-05-07 19:47 | 24.60383 | 56.11707 | 13122 ft | 332 kts | 27° |
| 2026-05-07 19:47 | 24.62514 | 56.12649 | 12322 ft | 330 kts | 16° |
| 2026-05-07 19:47 | 24.64728 | 56.13128 | 11547 ft | 327 kts | 9° |
| 2026-05-07 19:47 | 24.66954 | 56.13492 | 10961 ft | 319 kts | 8° |
| 2026-05-07 19:48 | 24.69153 | 56.13851 | 10433 ft | 320 kts | 8° |
| 2026-05-07 19:48 | 24.71375 | 56.14236 | 10210 ft | 326 kts | 8° |
| 2026-05-07 19:48 | 24.73624 | 56.14641 | 10054 ft | 326 kts | 8° |
| 2026-05-07 19:48 | 24.75853 | 56.15049 | 10033 ft | 321 kts | 8° |
| 2026-05-07 19:49 | 24.78121 | 56.15370 | 10042 ft | 342 kts | 0° |
| 2026-05-07 19:49 | 24.80545 | 56.15097 | 10028 ft | 355 kts | 346° |
| 2026-05-07 19:49 | 24.82830 | 56.14171 | 10016 ft | 355 kts | 335° |
| 2026-05-07 19:49 | 24.85078 | 56.13004 | 10000 ft | 356 kts | 334° |
| 2026-05-07 19:50 | 24.87322 | 56.11824 | 9997 ft | 356 kts | 334° |
| 2026-05-07 19:50 | 24.89572 | 56.10663 | 9987 ft | 357 kts | 334° |
| 2026-05-07 19:50 | 24.91799 | 56.09540 | 9986 ft | 357 kts | 335° |
| 2026-05-07 19:50 | 24.94063 | 56.08411 | 9985 ft | 357 kts | 335° |
| 2026-05-07 19:51 | 24.96319 | 56.07279 | 9989 ft | 352 kts | 333° |
| 2026-05-07 19:51 | 24.98323 | 56.05757 | 9965 ft | 347 kts | 313° |
| 2026-05-07 19:51 | 24.99923 | 56.03743 | 10001 ft | 353 kts | 310° |
| 2026-05-07 19:51 | 25.01552 | 56.01684 | 9997 ft | 356 kts | 311° |
| 2026-05-07 19:52 | 25.03206 | 55.99649 | 9996 ft | 354 kts | 311° |
| 2026-05-07 19:52 | 25.04852 | 55.97649 | 9980 ft | 346 kts | 311° |
| 2026-05-07 19:52 | 25.06407 | 55.95764 | 9927 ft | 323 kts | 311° |
| 2026-05-07 19:52 | 25.07843 | 55.94010 | 9721 ft | 294 kts | 311° |
| 2026-05-07 19:53 | 25.09158 | 55.92395 | 9363 ft | 274 kts | 311° |
| 2026-05-07 19:53 | 25.10412 | 55.90854 | 8826 ft | 264 kts | 311° |
| 2026-05-07 19:53 | 25.11631 | 55.89356 | 8209 ft | 260 kts | 311° |
| 2026-05-07 19:53 | 25.12834 | 55.87877 | 7541 ft | 258 kts | 311° |
| 2026-05-07 19:54 | 25.14030 | 55.86408 | 6895 ft | 256 kts | 311° |
| 2026-05-07 19:54 | 25.15218 | 55.84949 | 6397 ft | 257 kts | 311° |
| 2026-05-07 19:54 | 25.16314 | 55.83400 | 6245 ft | 259 kts | 301° |
| 2026-05-07 19:54 | 25.16922 | 55.81577 | 6106 ft | 261 kts | 279° |
| 2026-05-07 19:55 | 25.17093 | 55.79569 | 5796 ft | 265 kts | 273° |
| 2026-05-07 19:55 | 25.17182 | 55.77486 | 5200 ft | 277 kts | 272° |
| 2026-05-07 19:55 | 25.17268 | 55.75324 | 4613 ft | 287 kts | 272° |
| 2026-05-07 19:55 | 25.17359 | 55.73108 | 4265 ft | 287 kts | 272° |
| 2026-05-07 19:56 | 25.17449 | 55.70932 | 4051 ft | 277 kts | 272° |
| 2026-05-07 19:56 | 25.17532 | 55.68904 | 3668 ft | 259 kts | 272° |
| 2026-05-07 19:56 | 25.17610 | 55.66976 | 3294 ft | 243 kts | 272° |
| 2026-05-07 19:56 | 25.17682 | 55.65176 | 3028 ft | 225 kts | 272° |
| 2026-05-07 19:57 | 25.17747 | 55.63507 | 2716 ft | 212 kts | 272° |
| 2026-05-07 19:57 | 25.17805 | 55.61918 | 2332 ft | 202 kts | 272° |
| 2026-05-07 19:57 | 25.17852 | 55.60407 | 2046 ft | 191 kts | 272° |
| 2026-05-07 19:57 | 25.17890 | 55.58937 | 2098 ft | 194 kts | 272° |
| 2026-05-07 19:58 | 25.17926 | 55.57445 | 2075 ft | 194 kts | 272° |
| 2026-05-07 19:58 | 25.17959 | 55.55953 | 2033 ft | 192 kts | 272° |
| 2026-05-07 19:58 | 25.17990 | 55.54506 | 2021 ft | 191 kts | 272° |
| 2026-05-07 19:58 | 25.18021 | 55.53039 | 2014 ft | 191 kts | 272° |
| 2026-05-07 19:59 | 25.18050 | 55.51575 | 2029 ft | 189 kts | 272° |
| 2026-05-07 19:59 | 25.18119 | 55.50133 | 2002 ft | 187 kts | 282° |
| 2026-05-07 19:59 | 25.18619 | 55.48819 | 1893 ft | 184 kts | 295° |
| 2026-05-07 19:59 | 25.19163 | 55.47568 | 1647 ft | 174 kts | 297° |
| 2026-05-07 20:00 | 25.19738 | 55.46459 | 1431 ft | 159 kts | 301° |
| 2026-05-07 20:00 | 25.20311 | 55.45414 | 1255 ft | 161 kts | 301° |
| 2026-05-07 20:00 | 25.20877 | 55.44390 | 1033 ft | 154 kts | 301° |
| 2026-05-07 20:00 | 25.21423 | 55.43403 | 862 ft | 151 kts | 301° |
| 2026-05-07 20:01 | 25.21978 | 55.42399 | 697 ft | 153 kts | 301° |
| 2026-05-07 20:01 | 25.22527 | 55.41404 | 510 ft | 149 kts | 302° |
| 2026-05-07 20:01 | 25.23069 | 55.40427 | 311 ft | 150 kts | 302° |
| 2026-05-07 20:01 | 25.23606 | 55.39453 | 66 ft | 149 kts | 302° |
| 2026-05-07 20:02 | 25.24121 | 55.38532 | 36 ft | 128 kts | 301° |
| 2026-05-07 20:02 | 25.24507 | 55.37838 | 34 ft | 84 kts | 301° |
| 2026-05-07 20:02 | 25.24747 | 55.37394 | 33 ft | 49 kts | 292° |
| 2026-05-07 20:02 | 25.24780 | 55.37243 | 34 ft | 23 kts | 276° |
| 2026-05-07 20:03 | 25.24789 | 55.37067 | 30 ft | 21 kts | 272° |
| 2026-05-07 20:03 | 25.24791 | 55.37010 | 29 ft | 3 kts | 272° |
| 2026-05-07 20:03 | 25.24824 | 55.36899 | 28 ft | 19 kts | 294° |
| 2026-05-07 20:03 | 25.24865 | 55.36768 | 26 ft | 17 kts | 284° |
| 2026-05-07 20:04 | 25.24886 | 55.36692 | 27 ft | 1 kts | 291° |
| 2026-05-07 20:04 | 25.24907 | 55.36617 | 27 ft | 16 kts | 272° |
| 2026-05-07 20:04 | 25.24855 | 55.36547 | 27 ft | 15 kts | 198° |
| 2026-05-07 20:04 | 25.24792 | 55.36511 | 26 ft | 9 kts | 211° |
| 2026-05-07 20:05 | 25.24770 | 55.36495 | 32 ft | 0 kts | 212° |